Shelf Achiever — WDF4620 — position and weather

sailwx.info

Track history (hours):
 
Tides and Currents Weather Stations Pressure Air Temp Water Temp Dewpoint Dewpoint Depression Visibility Wind Speed Wind Dir Waves Ship Positions

Shelf Achiever

Owner: Shelf Workboats LLC, Galliano, LA. More information available from US FCC via Universal Licensing System and Coast Guard Vessel Documentation Center.

Last reported at 2018-Feb-21 11:31 UTC. Time now 2018-Feb-21 11:49 UTC.
Position N 29°47' W 092°11'.

Length 37 m.

Type: Passenger vessel. MMSI: 368502516.

Date/timePositionNaut miles runAvg speedWind from/ knotsBaromVisibWave heightAir tempDewpointWater temp
2018-Feb-21 11:31N 29°47' W 092°11'0 0.0
2018-Feb-21 11:01N 29°47' W 092°11'0 0.0
2018-Feb-21 10:31N 29°47' W 092°11'0 0.0
2018-Feb-21 10:01N 29°47' W 092°11'0 0.0
2018-Feb-21 09:31N 29°47' W 092°11'0 0.0
2018-Feb-21 08:59N 29°47' W 092°11'0 0.0
2018-Feb-21 08:31N 29°47' W 092°11'0 0.0
2018-Feb-21 07:58N 29°47' W 092°11'0 0.0
2018-Feb-21 07:30N 29°47' W 092°11'0 0.0
2018-Feb-21 07:00N 29°47' W 092°11'0 0.0
2018-Feb-21 06:30N 29°47' W 092°11'0 0.0
2018-Feb-21 06:00N 29°47' W 092°11'0 0.0
2018-Feb-21 05:30N 29°47' W 092°11'0 0.0
2018-Feb-21 04:59N 29°47' W 092°11'0 0.0
2018-Feb-21 04:31N 29°47' W 092°11'0 0.0
2018-Feb-21 04:01N 29°47' W 092°11'0 0.0
2018-Feb-21 03:31N 29°47' W 092°11'0 0.0
2018-Feb-21 02:59N 29°47' W 092°11'3 5.7
2018-Feb-21 02:30N 29°46' W 092°08'6 0.4
2018-Feb-20 12:18N 29°42' W 092°04'517.4
2018-Feb-20 12:00N 29°46' W 092°08'3 6.4
2018-Feb-20 11:31N 29°47' W 092°11'0 0.1
2018-Feb-20 11:00N 29°47' W 092°11'0 0.0
2018-Feb-20 10:30N 29°47' W 092°11'0 0.0
2018-Feb-20 10:00N 29°47' W 092°11'0 0.0
2018-Feb-20 09:30N 29°47' W 092°11'0 0.0
2018-Feb-20 09:00N 29°47' W 092°11'0 0.0
2018-Feb-20 08:31N 29°47' W 092°11'0 0.0
2018-Feb-20 07:58N 29°47' W 092°11'0 0.0
2018-Feb-20 07:31N 29°47' W 092°11'0 0.0
2018-Feb-20 07:01N 29°47' W 092°11'0 0.0
2018-Feb-20 06:31N 29°47' W 092°11'0 0.0
2018-Feb-20 06:00N 29°47' W 092°11'0 0.0
2018-Feb-20 05:31N 29°47' W 092°11'0 0.0
2018-Feb-20 05:00N 29°47' W 092°11'0 0.0
2018-Feb-20 04:31N 29°47' W 092°11'0 0.0
2018-Feb-20 04:00N 29°47' W 092°11'0 0.0
2018-Feb-20 03:31N 29°47' W 092°11'0 0.0
2018-Feb-20 03:00N 29°47' W 092°11'0 0.0
2018-Feb-20 02:30N 29°47' W 092°11'0 0.0
2018-Feb-20 02:01N 29°47' W 092°11'0 0.0
2018-Feb-20 01:31N 29°47' W 092°11'4 7.6
2018-Feb-20 01:00N 29°45' W 092°07'4 0.1
2018-Feb-18 04:27N 29°42' W 092°05'614.7
2018-Feb-18 04:00N 29°47' W 092°09'2 3.6
2018-Feb-18 03:30N 29°47' W 092°11'0 0.0
2018-Feb-18 03:00N 29°47' W 092°11'0 0.0
2018-Feb-18 02:30N 29°47' W 092°11'0 0.2
2018-Feb-18 02:00N 29°47' W 092°11'0 0.0
2018-Feb-18 01:30N 29°47' W 092°11'0 0.2
2018-Feb-18 01:00N 29°47' W 092°11'0 0.7
2018-Feb-18 00:30N 29°47' W 092°11'5 9.9
2018-Feb-17 23:59N 29°44' W 092°06'2 0.1
2018-Feb-16 20:31N 29°42' W 092°05'117.3
2018-Feb-16 20:27N 29°43' W 092°05'612.5
2018-Feb-16 20:01N 29°47' W 092°09'2 3.2
2018-Feb-16 19:31N 29°47' W 092°11'3 6.0
2018-Feb-16 19:00N 29°46' W 092°08'4 0.2
2018-Feb-16 00:20N 29°43' W 092°05'515.9
2018-Feb-16 00:00N 29°47' W 092°08'2 4.6
2018-Feb-15 23:30N 29°47' W 092°11'0 0.0
2018-Feb-15 23:00N 29°47' W 092°11'0 0.0
2018-Feb-15 22:30N 29°47' W 092°11'0 0.0
2018-Feb-15 22:00N 29°47' W 092°11'0 0.0
2018-Feb-15 21:30N 29°47' W 092°11'3 5.9
2018-Feb-15 21:00N 29°46' W 092°08'2 0.3
2018-Feb-15 14:00N 29°44' W 092°06'4 8.2
2018-Feb-15 13:30N 29°47' W 092°10'1 2.0
2018-Feb-15 13:00N 29°47' W 092°11'0 0.0
2018-Feb-15 12:30N 29°47' W 092°11'0 0.0
2018-Feb-15 12:00N 29°47' W 092°11'0 0.0
2018-Feb-15 11:30N 29°47' W 092°11'0 0.0
2018-Feb-15 11:00N 29°47' W 092°11'0 0.0
2018-Feb-15 10:29N 29°47' W 092°11'0 0.0
2018-Feb-15 10:00N 29°47' W 092°11'0 0.0
2018-Feb-15 09:30N 29°47' W 092°11'0 0.0
2018-Feb-15 09:00N 29°47' W 092°11'0 0.0
2018-Feb-15 08:30N 29°47' W 092°11'0 0.0
2018-Feb-15 08:00N 29°47' W 092°11'0 0.0
2018-Feb-15 07:30N 29°47' W 092°11'0 0.0
2018-Feb-15 07:00N 29°47' W 092°11'0 0.0
2018-Feb-15 06:30N 29°47' W 092°11'0 0.0
2018-Feb-15 06:00N 29°47' W 092°11'0 0.0
2018-Feb-15 05:30N 29°47' W 092°11'0 0.0
2018-Feb-15 05:00N 29°47' W 092°11'0 0.0
2018-Feb-15 04:30N 29°47' W 092°11'0 0.0
2018-Feb-15 04:00N 29°47' W 092°11'0 0.0
2018-Feb-15 03:30N 29°47' W 092°11'0 0.0
2018-Feb-15 03:00N 29°47' W 092°11'0 0.2
2018-Feb-15 02:30N 29°47' W 092°11'0 0.0
2018-Feb-15 02:00N 29°47' W 092°11'2 3.3
2018-Feb-15 01:30N 29°47' W 092°09'6 0.3
2018-Feb-14 05:11N 29°43' W 092°05'317.3
2018-Feb-14 05:00N 29°45' W 092°07'4 7.6
2018-Feb-14 04:30N 29°47' W 092°11'8 0.2
2018-Feb-12 11:56N 29°42' W 092°05'614.9
2018-Feb-12 11:30N 29°47' W 092°09'2 3.4
2018-Feb-12 10:59N 29°47' W 092°11'0 0.0
2018-Feb-12 10:30N 29°47' W 092°11'0 0.0
2018-Feb-12 10:00N 29°47' W 092°11'0 0.0
2018-Feb-12 09:30N 29°47' W 092°11'0 0.0
2018-Feb-12 09:00N 29°47' W 092°11'0 0.0
2018-Feb-12 08:28N 29°47' W 092°11'0 0.0
2018-Feb-12 08:00N 29°47' W 092°11'0 0.0
2018-Feb-12 07:30N 29°47' W 092°11'0 0.0
2018-Feb-12 07:00N 29°47' W 092°11'0 0.0
2018-Feb-12 06:29N 29°47' W 092°11'0 0.0
2018-Feb-12 05:58N 29°47' W 092°11'0 0.0
2018-Feb-12 05:30N 29°47' W 092°11'0 0.0
2018-Feb-12 05:00N 29°47' W 092°11'0 0.0
2018-Feb-12 04:30N 29°47' W 092°11'0 0.0
2018-Feb-12 04:00N 29°47' W 092°11'0 0.0
2018-Feb-12 03:30N 29°47' W 092°11'0 0.0
2018-Feb-12 03:00N 29°47' W 092°11'0 0.0
2018-Feb-12 02:30N 29°47' W 092°11'0 0.0
2018-Feb-12 02:00N 29°47' W 092°11'0 0.0
2018-Feb-12 01:30N 29°47' W 092°11'0 0.0
2018-Feb-12 01:00N 29°47' W 092°11'2 3.7
2018-Feb-12 00:30N 29°47' W 092°09'  
Track history (hours):
 
Tides and Currents Weather Stations Pressure Air Temp Water Temp Dewpoint Dewpoint Depression Visibility Wind Speed Wind Dir Waves Ship Positions

Shelf Achiever

Owner: Shelf Workboats LLC, Galliano, LA. More information available from US FCC via Universal Licensing System and Coast Guard Vessel Documentation Center.

Last reported at 2018-Feb-21 11:31 UTC. Time now 2018-Feb-21 11:49 UTC.
Position N 29°47' W 092°11'.

Length 37 m.

Type: Passenger vessel. MMSI: 368502516.

Date/timePositionNaut miles runAvg speedWind from/ knotsBaromVisibWave heightAir tempDewpointWater temp
2018-Feb-21 11:31N 29°47' W 092°11'0 0.0
2018-Feb-21 11:01N 29°47' W 092°11'0 0.0
2018-Feb-21 10:31N 29°47' W 092°11'0 0.0
2018-Feb-21 10:01N 29°47' W 092°11'0 0.0
2018-Feb-21 09:31N 29°47' W 092°11'0 0.0
2018-Feb-21 08:59N 29°47' W 092°11'0 0.0
2018-Feb-21 08:31N 29°47' W 092°11'0 0.0
2018-Feb-21 07:58N 29°47' W 092°11'0 0.0
2018-Feb-21 07:30N 29°47' W 092°11'0 0.0
2018-Feb-21 07:00N 29°47' W 092°11'0 0.0
2018-Feb-21 06:30N 29°47' W 092°11'0 0.0
2018-Feb-21 06:00N 29°47' W 092°11'0 0.0
2018-Feb-21 05:30N 29°47' W 092°11'0 0.0
2018-Feb-21 04:59N 29°47' W 092°11'0 0.0
2018-Feb-21 04:31N 29°47' W 092°11'0 0.0
2018-Feb-21 04:01N 29°47' W 092°11'0 0.0
2018-Feb-21 03:31N 29°47' W 092°11'0 0.0
2018-Feb-21 02:59N 29°47' W 092°11'3 5.7
2018-Feb-21 02:30N 29°46' W 092°08'6 0.4
2018-Feb-20 12:18N 29°42' W 092°04'517.4
2018-Feb-20 12:00N 29°46' W 092°08'3 6.4
2018-Feb-20 11:31N 29°47' W 092°11'0 0.1
2018-Feb-20 11:00N 29°47' W 092°11'0 0.0
2018-Feb-20 10:30N 29°47' W 092°11'0 0.0
2018-Feb-20 10:00N 29°47' W 092°11'0 0.0
2018-Feb-20 09:30N 29°47' W 092°11'0 0.0
2018-Feb-20 09:00N 29°47' W 092°11'0 0.0
2018-Feb-20 08:31N 29°47' W 092°11'0 0.0
2018-Feb-20 07:58N 29°47' W 092°11'0 0.0
2018-Feb-20 07:31N 29°47' W 092°11'0 0.0
2018-Feb-20 07:01N 29°47' W 092°11'0 0.0
2018-Feb-20 06:31N 29°47' W 092°11'0 0.0
2018-Feb-20 06:00N 29°47' W 092°11'0 0.0
2018-Feb-20 05:31N 29°47' W 092°11'0 0.0
2018-Feb-20 05:00N 29°47' W 092°11'0 0.0
2018-Feb-20 04:31N 29°47' W 092°11'0 0.0
2018-Feb-20 04:00N 29°47' W 092°11'0 0.0
2018-Feb-20 03:31N 29°47' W 092°11'0 0.0
2018-Feb-20 03:00N 29°47' W 092°11'0 0.0
2018-Feb-20 02:30N 29°47' W 092°11'0 0.0
2018-Feb-20 02:01N 29°47' W 092°11'0 0.0
2018-Feb-20 01:31N 29°47' W 092°11'4 7.6
2018-Feb-20 01:00N 29°45' W 092°07'4 0.1
2018-Feb-18 04:27N 29°42' W 092°05'614.7
2018-Feb-18 04:00N 29°47' W 092°09'2 3.6
2018-Feb-18 03:30N 29°47' W 092°11'0 0.0
2018-Feb-18 03:00N 29°47' W 092°11'0 0.0
2018-Feb-18 02:30N 29°47' W 092°11'0 0.2
2018-Feb-18 02:00N 29°47' W 092°11'0 0.0
2018-Feb-18 01:30N 29°47' W 092°11'0 0.2
2018-Feb-18 01:00N 29°47' W 092°11'0 0.7
2018-Feb-18 00:30N 29°47' W 092°11'5 9.9
2018-Feb-17 23:59N 29°44' W 092°06'2 0.1
2018-Feb-16 20:31N 29°42' W 092°05'117.3
2018-Feb-16 20:27N 29°43' W 092°05'612.5
2018-Feb-16 20:01N 29°47' W 092°09'2 3.2
2018-Feb-16 19:31N 29°47' W 092°11'3 6.0
2018-Feb-16 19:00N 29°46' W 092°08'4 0.2
2018-Feb-16 00:20N 29°43' W 092°05'515.9
2018-Feb-16 00:00N 29°47' W 092°08'2 4.6
2018-Feb-15 23:30N 29°47' W 092°11'0 0.0
2018-Feb-15 23:00N 29°47' W 092°11'0 0.0
2018-Feb-15 22:30N 29°47' W 092°11'0 0.0
2018-Feb-15 22:00N 29°47' W 092°11'0 0.0
2018-Feb-15 21:30N 29°47' W 092°11'3 5.9
2018-Feb-15 21:00N 29°46' W 092°08'2 0.3
2018-Feb-15 14:00N 29°44' W 092°06'4 8.2
2018-Feb-15 13:30N 29°47' W 092°10'1 2.0
2018-Feb-15 13:00N 29°47' W 092°11'0 0.0
2018-Feb-15 12:30N 29°47' W 092°11'0 0.0
2018-Feb-15 12:00N 29°47' W 092°11'0 0.0
2018-Feb-15 11:30N 29°47' W 092°11'0 0.0
2018-Feb-15 11:00N 29°47' W 092°11'0 0.0
2018-Feb-15 10:29N 29°47' W 092°11'0 0.0
2018-Feb-15 10:00N 29°47' W 092°11'0 0.0
2018-Feb-15 09:30N 29°47' W 092°11'0 0.0
2018-Feb-15 09:00N 29°47' W 092°11'0 0.0
2018-Feb-15 08:30N 29°47' W 092°11'0 0.0
2018-Feb-15 08:00N 29°47' W 092°11'0 0.0
2018-Feb-15 07:30N 29°47' W 092°11'0 0.0
2018-Feb-15 07:00N 29°47' W 092°11'0 0.0
2018-Feb-15 06:30N 29°47' W 092°11'0 0.0
2018-Feb-15 06:00N 29°47' W 092°11'0 0.0
2018-Feb-15 05:30N 29°47' W 092°11'0 0.0
2018-Feb-15 05:00N 29°47' W 092°11'0 0.0
2018-Feb-15 04:30N 29°47' W 092°11'0 0.0
2018-Feb-15 04:00N 29°47' W 092°11'0 0.0
2018-Feb-15 03:30N 29°47' W 092°11'0 0.0
2018-Feb-15 03:00N 29°47' W 092°11'0 0.2
2018-Feb-15 02:30N 29°47' W 092°11'0 0.0
2018-Feb-15 02:00N 29°47' W 092°11'2 3.3
2018-Feb-15 01:30N 29°47' W 092°09'6 0.3
2018-Feb-14 05:11N 29°43' W 092°05'317.3
2018-Feb-14 05:00N 29°45' W 092°07'4 7.6
2018-Feb-14 04:30N 29°47' W 092°11'8 0.2
2018-Feb-12 11:56N 29°42' W 092°05'614.9
2018-Feb-12 11:30N 29°47' W 092°09'2 3.4
2018-Feb-12 10:59N 29°47' W 092°11'0 0.0
2018-Feb-12 10:30N 29°47' W 092°11'0 0.0
2018-Feb-12 10:00N 29°47' W 092°11'0 0.0
2018-Feb-12 09:30N 29°47' W 092°11'0 0.0
2018-Feb-12 09:00N 29°47' W 092°11'0 0.0
2018-Feb-12 08:28N 29°47' W 092°11'0 0.0
2018-Feb-12 08:00N 29°47' W 092°11'0 0.0
2018-Feb-12 07:30N 29°47' W 092°11'0 0.0
2018-Feb-12 07:00N 29°47' W 092°11'0 0.0
2018-Feb-12 06:29N 29°47' W 092°11'0 0.0
2018-Feb-12 05:58N 29°47' W 092°11'0 0.0
2018-Feb-12 05:30N 29°47' W 092°11'0 0.0
2018-Feb-12 05:00N 29°47' W 092°11'0 0.0
2018-Feb-12 04:30N 29°47' W 092°11'0 0.0
2018-Feb-12 04:00N 29°47' W 092°11'0 0.0
2018-Feb-12 03:30N 29°47' W 092°11'0 0.0
2018-Feb-12 03:00N 29°47' W 092°11'0 0.0
2018-Feb-12 02:30N 29°47' W 092°11'0 0.0
2018-Feb-12 02:00N 29°47' W 092°11'0 0.0
2018-Feb-12 01:30N 29°47' W 092°11'0 0.0
2018-Feb-12 01:00N 29°47' W 092°11'2 3.7
2018-Feb-12 00:30N 29°47' W 092°09'  

Dump ship's entire track history